Sonnenkopf, Austria
Current Conditions -  °F | °C
As of 8:20 AM on Wednesday 26 Nov 2014 (Local Time) from LSZR Reporting Station
Haze Haze  
Wind Chill: 45°   Ceiling: 300
Heat Index: 45°   Visibility: 1.1mi
Dew Point: 45°   Wind: 2mph
Humidity: 100%   Direction: 80°E
Pressure: 30"   Gusts: NA
Location:  47.13°N, 10.06°E
Report Text: LSZR 260620Z 08002KT 1800 BR OVC003 07/07 Q1016 NOSIG RMK B
Loading
Personal Weather Stations






























Interactive Weather Map New forecast layout! Learn more

10-Day Weather Forecast

Advertisements
Track Severe Weather on mobile